sensor_id;sensor_type;location;lat;lon;timestamp;temperature;humidity
15044;DHT22;7619;48.562;8.910;2022-08-01T00:00:09;19.20;1.00
15044;DHT22;7619;48.562;8.910;2022-08-01T00:02:39;19.10;1.00
15044;DHT22;7619;48.562;8.910;2022-08-01T00:05:09;18.90;1.00
15044;DHT22;7619;48.562;8.910;2022-08-01T00:10:10;18.70;1.00
15044;DHT22;7619;48.562;8.910;2022-08-01T00:12:39;18.60;1.00
15044;DHT22;7619;48.562;8.910;2022-08-01T00:15:11;18.60;1.00
15044;DHT22;7619;48.562;8.910;2022-08-01T00:17:40;18.70;1.00
15044;DHT22;7619;48.562;8.910;2022-08-01T00:20:12;18.70;1.00
15044;DHT22;7619;48.562;8.910;2022-08-01T00:22:41;18.80;1.00
15044;DHT22;7619;48.562;8.910;2022-08-01T00:27:38;18.80;1.00
15044;DHT22;7619;48.562;8.910;2022-08-01T00:30:09;18.80;1.00
15044;DHT22;7619;48.562;8.910;2022-08-01T00:35:07;18.70;1.00
15044;DHT22;7619;48.562;8.910;2022-08-01T00:40:07;18.80;1.00
15044;DHT22;7619;48.562;8.910;2022-08-01T00:42:36;18.80;1.00
15044;DHT22;7619;48.562;8.910;2022-08-01T00:45:07;18.80;1.00
15044;DHT22;7619;48.562;8.910;2022-08-01T00:47:36;18.70;1.00
15044;DHT22;7619;48.562;8.910;2022-08-01T00:50:06;18.80;1.00
15044;DHT22;7619;48.562;8.910;2022-08-01T00:52:36;18.60;1.00
15044;DHT22;7619;48.562;8.910;2022-08-01T00:55:06;18.60;1.00
15044;DHT22;7619;48.562;8.910;2022-08-01T00:57:36;18.60;1.00
15044;DHT22;7619;48.562;8.910;2022-08-01T01:00:08;18.40;1.00
15044;DHT22;7619;48.562;8.910;2022-08-01T01:02:37;18.30;1.00
15044;DHT22;7619;48.562;8.910;2022-08-01T01:05:08;18.20;1.00
15044;DHT22;7619;48.562;8.910;2022-08-01T01:07:40;18.20;1.00
15044;DHT22;7619;48.562;8.910;2022-08-01T01:10:15;18.10;1.00
15044;DHT22;7619;48.562;8.910;2022-08-01T01:15:15;18.10;1.00
15044;DHT22;7619;48.562;8.910;2022-08-01T01:17:48;18.10;1.00
15044;DHT22;7619;48.562;8.910;2022-08-01T01:20:19;18.10;1.00
15044;DHT22;7619;48.562;8.910;2022-08-01T01:22:59;18.10;1.00
15044;DHT22;7619;48.562;8.910;2022-08-01T01:25:51;18.00;1.00
15044;DHT22;7619;48.562;8.910;2022-08-01T01:28:23;18.00;1.00
15044;DHT22;7619;48.562;8.910;2022-08-01T01:30:53;17.90;1.00
15044;DHT22;7619;48.562;8.910;2022-08-01T01:33:25;17.90;1.00
15044;DHT22;7619;48.562;8.910;2022-08-01T01:36:01;17.70;1.00
15044;DHT22;7619;48.562;8.910;2022-08-01T01:38:33;17.80;1.00
15044;DHT22;7619;48.562;8.910;2022-08-01T01:41:03;17.80;1.00
15044;DHT22;7619;48.562;8.910;2022-08-01T01:43:34;17.70;43.90
15044;DHT22;7619;48.562;8.910;2022-08-01T01:48:34;17.70;79.70
15044;DHT22;7619;48.562;8.910;2022-08-01T01:53:34;17.50;99.90
15044;DHT22;7619;48.562;8.910;2022-08-01T01:56:04;17.60;99.90
15044;DHT22;7619;48.562;8.910;2022-08-01T02:01:05;17.50;99.90
15044;DHT22;7619;48.562;8.910;2022-08-01T02:03:36;17.40;99.90
15044;DHT22;7619;48.562;8.910;2022-08-01T02:06:06;17.30;99.90
15044;DHT22;7619;48.562;8.910;2022-08-01T02:08:36;17.30;99.90
15044;DHT22;7619;48.562;8.910;2022-08-01T02:11:07;17.30;1.00
15044;DHT22;7619;48.562;8.910;2022-08-01T02:13:53;17.20;1.00
15044;DHT22;7619;48.562;8.910;2022-08-01T02:16:24;17.20;1.00
15044;DHT22;7619;48.562;8.910;2022-08-01T02:18:54;17.10;1.00
15044;DHT22;7619;48.562;8.910;2022-08-01T02:21:27;17.10;98.40
15044;DHT22;7619;48.562;8.910;2022-08-01T02:24:00;17.10;99.90
15044;DHT22;7619;48.562;8.910;2022-08-01T02:26:30;17.00;99.90
15044;DHT22;7619;48.562;8.910;2022-08-01T02:29:02;17.00;99.90
15044;DHT22;7619;48.562;8.910;2022-08-01T02:31:34;16.90;1.00
15044;DHT22;7619;48.562;8.910;2022-08-01T02:34:06;16.90;1.00
15044;DHT22;7619;48.562;8.910;2022-08-01T02:36:36;16.80;1.00
15044;DHT22;7619;48.562;8.910;2022-08-01T02:41:38;16.70;99.90
15044;DHT22;7619;48.562;8.910;2022-08-01T02:44:08;16.60;1.00
15044;DHT22;7619;48.562;8.910;2022-08-01T02:46:40;16.60;99.90
15044;DHT22;7619;48.562;8.910;2022-08-01T02:51:40;16.60;1.00
15044;DHT22;7619;48.562;8.910;2022-08-01T02:54:11;16.60;1.00
15044;DHT22;7619;48.562;8.910;2022-08-01T02:56:41;16.60;1.00
15044;DHT22;7619;48.562;8.910;2022-08-01T02:59:13;16.50;40.30
15044;DHT22;7619;48.562;8.910;2022-08-01T03:01:44;16.40;16.30
15044;DHT22;7619;48.562;8.910;2022-08-01T03:06:43;16.30;1.00
15044;DHT22;7619;48.562;8.910;2022-08-01T03:09:14;16.20;1.00
15044;DHT22;7619;48.562;8.910;2022-08-01T03:11:44;16.10;83.80
15044;DHT22;7619;48.562;8.910;2022-08-01T03:14:14;16.00;99.90
15044;DHT22;7619;48.562;8.910;2022-08-01T03:16:45;16.00;99.90
15044;DHT22;7619;48.562;8.910;2022-08-01T03:19:14;16.00;1.00
15044;DHT22;7619;48.562;8.910;2022-08-01T03:21:44;16.00;99.90
15044;DHT22;7619;48.562;8.910;2022-08-01T03:24:14;16.00;99.90
15044;DHT22;7619;48.562;8.910;2022-08-01T03:26:44;16.00;1.00
15044;DHT22;7619;48.562;8.910;2022-08-01T03:29:17;16.00;99.90
15044;DHT22;7619;48.562;8.910;2022-08-01T03:31:48;16.10;1.00
15044;DHT22;7619;48.562;8.910;2022-08-01T03:34:18;16.00;1.00
15044;DHT22;7619;48.562;8.910;2022-08-01T03:36:52;16.00;1.00
15044;DHT22;7619;48.562;8.910;2022-08-01T03:39:22;16.00;1.00
15044;DHT22;7619;48.562;8.910;2022-08-01T03:41:56;16.00;95.40
15044;DHT22;7619;48.562;8.910;2022-08-01T03:44:27;15.90;99.90
15044;DHT22;7619;48.562;8.910;2022-08-01T03:47:00;15.90;99.90
15044;DHT22;7619;48.562;8.910;2022-08-01T03:49:32;15.90;23.70
15044;DHT22;7619;48.562;8.910;2022-08-01T03:52:04;15.90;15.50
15044;DHT22;7619;48.562;8.910;2022-08-01T03:54:37;15.90;99.90
15044;DHT22;7619;48.562;8.910;2022-08-01T03:57:07;15.90;1.00
15044;DHT22;7619;48.562;8.910;2022-08-01T03:59:38;16.00;1.00
15044;DHT22;7619;48.562;8.910;2022-08-01T04:02:08;16.00;99.90
15044;DHT22;7619;48.562;8.910;2022-08-01T04:04:38;15.90;37.20
15044;DHT22;7619;48.562;8.910;2022-08-01T04:07:21;15.90;99.90
15044;DHT22;7619;48.562;8.910;2022-08-01T04:09:51;15.90;1.00
15044;DHT22;7619;48.562;8.910;2022-08-01T04:12:21;15.90;99.90
15044;DHT22;7619;48.562;8.910;2022-08-01T04:14:50;15.90;99.90
15044;DHT22;7619;48.562;8.910;2022-08-01T04:17:19;15.80;99.90
15044;DHT22;7619;48.562;8.910;2022-08-01T04:19:49;15.70;1.00
15044;DHT22;7619;48.562;8.910;2022-08-01T04:22:18;15.70;99.90
15044;DHT22;7619;48.562;8.910;2022-08-01T04:24:49;15.70;1.00
15044;DHT22;7619;48.562;8.910;2022-08-01T04:27:23;15.70;1.00
15044;DHT22;7619;48.562;8.910;2022-08-01T04:29:54;15.70;1.00
15044;DHT22;7619;48.562;8.910;2022-08-01T04:32:26;15.70;1.00
15044;DHT22;7619;48.562;8.910;2022-08-01T04:34:57;15.80;1.00
15044;DHT22;7619;48.562;8.910;2022-08-01T04:37:28;15.90;99.90
15044;DHT22;7619;48.562;8.910;2022-08-01T04:39:59;16.10;99.90
15044;DHT22;7619;48.562;8.910;2022-08-01T04:42:29;16.40;99.90
15044;DHT22;7619;48.562;8.910;2022-08-01T04:47:27;16.70;73.30
15044;DHT22;7619;48.562;8.910;2022-08-01T04:49:57;16.70;99.90
15044;DHT22;7619;48.562;8.910;2022-08-01T04:52:34;16.80;1.00
15044;DHT22;7619;48.562;8.910;2022-08-01T04:55:05;17.20;37.90
15044;DHT22;7619;48.562;8.910;2022-08-01T04:57:37;18.00;99.90
15044;DHT22;7619;48.562;8.910;2022-08-01T05:00:08;19.10;1.00
15044;DHT22;7619;48.562;8.910;2022-08-01T05:02:38;20.10;1.00
15044;DHT22;7619;48.562;8.910;2022-08-01T05:05:08;21.20;99.90
15044;DHT22;7619;48.562;8.910;2022-08-01T05:07:38;22.00;99.90
15044;DHT22;7619;48.562;8.910;2022-08-01T05:10:08;22.60;1.00
15044;DHT22;7619;48.562;8.910;2022-08-01T05:12:38;23.50;99.90
15044;DHT22;7619;48.562;8.910;2022-08-01T05:15:08;24.50;75.50
15044;DHT22;7619;48.562;8.910;2022-08-01T05:20:07;25.30;1.00
15044;DHT22;7619;48.562;8.910;2022-08-01T05:22:36;25.80;99.90
15044;DHT22;7619;48.562;8.910;2022-08-01T05:25:06;26.40;99.90
15044;DHT22;7619;48.562;8.910;2022-08-01T05:27:37;26.40;99.90
15044;DHT22;7619;48.562;8.910;2022-08-01T05:30:09;26.80;99.90
15044;DHT22;7619;48.562;8.910;2022-08-01T05:35:08;27.90;99.90
15044;DHT22;7619;48.562;8.910;2022-08-01T05:37:37;28.30;99.90
15044;DHT22;7619;48.562;8.910;2022-08-01T05:40:08;28.60;99.90
15044;DHT22;7619;48.562;8.910;2022-08-01T05:42:37;29.20;99.90
15044;DHT22;7619;48.562;8.910;2022-08-01T05:45:07;29.70;99.90
15044;DHT22;7619;48.562;8.910;2022-08-01T05:47:36;29.70;99.90
15044;DHT22;7619;48.562;8.910;2022-08-01T05:50:07;29.30;99.90
15044;DHT22;7619;48.562;8.910;2022-08-01T05:52:36;28.80;99.90
15044;DHT22;7619;48.562;8.910;2022-08-01T05:55:08;28.70;99.90
15044;DHT22;7619;48.562;8.910;2022-08-01T05:57:37;29.10;99.90
15044;DHT22;7619;48.562;8.910;2022-08-01T06:00:10;29.60;99.90
15044;DHT22;7619;48.562;8.910;2022-08-01T06:02:43;29.90;99.90
15044;DHT22;7619;48.562;8.910;2022-08-01T06:05:12;29.80;99.90
15044;DHT22;7619;48.562;8.910;2022-08-01T06:07:41;29.70;99.90
15044;DHT22;7619;48.562;8.910;2022-08-01T06:10:11;29.10;99.90
15044;DHT22;7619;48.562;8.910;2022-08-01T06:12:40;30.10;99.90
15044;DHT22;7619;48.562;8.910;2022-08-01T06:15:11;30.60;99.90
15044;DHT22;7619;48.562;8.910;2022-08-01T06:17:40;31.00;99.90
15044;DHT22;7619;48.562;8.910;2022-08-01T06:22:49;31.60;99.90
15044;DHT22;7619;48.562;8.910;2022-08-01T06:30:31;31.40;99.90
15044;DHT22;7619;48.562;8.910;2022-08-01T06:33:00;31.30;99.90
15044;DHT22;7619;48.562;8.910;2022-08-01T06:35:30;31.90;99.90
15044;DHT22;7619;48.562;8.910;2022-08-01T06:37:59;31.90;99.90
15044;DHT22;7619;48.562;8.910;2022-08-01T06:40:28;31.00;99.90
15044;DHT22;7619;48.562;8.910;2022-08-01T06:42:58;30.90;99.90
15044;DHT22;7619;48.562;8.910;2022-08-01T06:45:27;31.60;99.90
15044;DHT22;7619;48.562;8.910;2022-08-01T06:47:56;31.60;99.90
15044;DHT22;7619;48.562;8.910;2022-08-01T06:50:26;31.70;99.90
15044;DHT22;7619;48.562;8.910;2022-08-01T06:52:56;32.10;99.90
15044;DHT22;7619;48.562;8.910;2022-08-01T06:55:25;32.00;99.90
15044;DHT22;7619;48.562;8.910;2022-08-01T06:57:54;32.40;99.90
15044;DHT22;7619;48.562;8.910;2022-08-01T07:00:24;32.50;99.90
15044;DHT22;7619;48.562;8.910;2022-08-01T07:02:56;32.90;99.90
15044;DHT22;7619;48.562;8.910;2022-08-01T07:05:26;32.80;99.90
15044;DHT22;7619;48.562;8.910;2022-08-01T07:07:57;32.80;99.90
15044;DHT22;7619;48.562;8.910;2022-08-01T07:10:27;32.10;99.90
15044;DHT22;7619;48.562;8.910;2022-08-01T07:12:56;32.20;99.90
15044;DHT22;7619;48.562;8.910;2022-08-01T07:15:25;32.60;99.90
15044;DHT22;7619;48.562;8.910;2022-08-01T07:17:54;32.80;99.90
15044;DHT22;7619;48.562;8.910;2022-08-01T07:20:24;33.00;99.90
15044;DHT22;7619;48.562;8.910;2022-08-01T07:22:53;33.00;99.90
15044;DHT22;7619;48.562;8.910;2022-08-01T07:27:51;31.50;99.90
15044;DHT22;7619;48.562;8.910;2022-08-01T07:30:20;31.60;99.90
15044;DHT22;7619;48.562;8.910;2022-08-01T07:32:49;31.40;99.90
15044;DHT22;7619;48.562;8.910;2022-08-01T07:35:18;32.40;99.90
15044;DHT22;7619;48.562;8.910;2022-08-01T07:37:47;32.90;99.90
15044;DHT22;7619;48.562;8.910;2022-08-01T07:40:17;32.90;99.90
15044;DHT22;7619;48.562;8.910;2022-08-01T07:42:46;33.00;99.90
15044;DHT22;7619;48.562;8.910;2022-08-01T07:45:15;33.30;99.90
15044;DHT22;7619;48.562;8.910;2022-08-01T07:47:44;33.00;99.90
15044;DHT22;7619;48.562;8.910;2022-08-01T07:50:14;32.50;99.90
15044;DHT22;7619;48.562;8.910;2022-08-01T07:52:44;32.20;99.80
15044;DHT22;7619;48.562;8.910;2022-08-01T07:55:13;32.40;99.90
15044;DHT22;7619;48.562;8.910;2022-08-01T07:57:42;32.30;99.70
15044;DHT22;7619;48.562;8.910;2022-08-01T08:00:13;32.00;99.70
15044;DHT22;7619;48.562;8.910;2022-08-01T08:02:42;31.80;99.70
15044;DHT22;7619;48.562;8.910;2022-08-01T08:05:11;31.70;99.30
15044;DHT22;7619;48.562;8.910;2022-08-01T08:07:40;31.70;99.60
15044;DHT22;7619;48.562;8.910;2022-08-01T08:10:10;31.90;99.10
15044;DHT22;7619;48.562;8.910;2022-08-01T08:15:20;32.40;98.90
15044;DHT22;7619;48.562;8.910;2022-08-01T08:17:49;32.10;98.80
15044;DHT22;7619;48.562;8.910;2022-08-01T08:20:18;31.90;98.60
15044;DHT22;7619;48.562;8.910;2022-08-01T08:22:49;31.50;98.00
15044;DHT22;7619;48.562;8.910;2022-08-01T08:27:47;30.30;94.80
15044;DHT22;7619;48.562;8.910;2022-08-01T08:30:16;30.40;96.20
15044;DHT22;7619;48.562;8.910;2022-08-01T08:32:45;29.90;94.60
15044;DHT22;7619;48.562;8.910;2022-08-01T08:35:14;29.70;93.30
15044;DHT22;7619;48.562;8.910;2022-08-01T08:37:43;29.60;93.00
15044;DHT22;7619;48.562;8.910;2022-08-01T08:40:12;29.80;93.10
15044;DHT22;7619;48.562;8.910;2022-08-01T08:42:41;30.30;95.90
15044;DHT22;7619;48.562;8.910;2022-08-01T08:45:11;31.10;97.70
15044;DHT22;7619;48.562;8.910;2022-08-01T08:47:40;31.50;98.40
15044;DHT22;7619;48.562;8.910;2022-08-01T08:50:10;31.20;97.80
15044;DHT22;7619;48.562;8.910;2022-08-01T08:52:41;31.20;97.90
15044;DHT22;7619;48.562;8.910;2022-08-01T08:55:12;31.50;97.80
15044;DHT22;7619;48.562;8.910;2022-08-01T08:57:44;30.80;97.30
15044;DHT22;7619;48.562;8.910;2022-08-01T09:00:14;30.00;94.30
15044;DHT22;7619;48.562;8.910;2022-08-01T09:02:45;29.80;94.40
15044;DHT22;7619;48.562;8.910;2022-08-01T09:05:14;29.80;92.90
15044;DHT22;7619;48.562;8.910;2022-08-01T09:10:13;29.10;83.90
15044;DHT22;7619;48.562;8.910;2022-08-01T09:13:02;29.00;82.60
15044;DHT22;7619;48.562;8.910;2022-08-01T09:15:40;28.70;76.30
15044;DHT22;7619;48.562;8.910;2022-08-01T09:18:08;28.50;73.30
15044;DHT22;7619;48.562;8.910;2022-08-01T09:20:39;28.70;67.70
15044;DHT22;7619;48.562;8.910;2022-08-01T09:23:11;29.20;86.20
15044;DHT22;7619;48.562;8.910;2022-08-01T09:25:51;30.00;95.10
15044;DHT22;7619;48.562;8.910;2022-08-01T09:28:27;30.50;98.10
15044;DHT22;7619;48.562;8.910;2022-08-01T09:30:57;30.90;99.60
15044;DHT22;7619;48.562;8.910;2022-08-01T09:33:28;31.40;99.40
15044;DHT22;7619;48.562;8.910;2022-08-01T09:35:59;31.80;99.30
15044;DHT22;7619;48.562;8.910;2022-08-01T09:38:27;31.80;99.90
15044;DHT22;7619;48.562;8.910;2022-08-01T09:43:27;31.90;98.90
15044;DHT22;7619;48.562;8.910;2022-08-01T09:46:02;31.80;99.00
15044;DHT22;7619;48.562;8.910;2022-08-01T09:48:30;32.00;98.50
15044;DHT22;7619;48.562;8.910;2022-08-01T09:53:45;30.90;96.60
15044;DHT22;7619;48.562;8.910;2022-08-01T09:58:52;30.20;95.50
15044;DHT22;7619;48.562;8.910;2022-08-01T10:01:22;29.50;94.60
15044;DHT22;7619;48.562;8.910;2022-08-01T10:04:06;29.30;92.00
15044;DHT22;7619;48.562;8.910;2022-08-01T10:06:35;30.60;96.00
15044;DHT22;7619;48.562;8.910;2022-08-01T10:11:33;32.30;97.80
15044;DHT22;7619;48.562;8.910;2022-08-01T10:14:05;31.80;97.00
15044;DHT22;7619;48.562;8.910;2022-08-01T10:21:43;30.50;96.40
15044;DHT22;7619;48.562;8.910;2022-08-01T10:24:14;29.90;95.50
15044;DHT22;7619;48.562;8.910;2022-08-01T10:34:20;28.80;91.30
15044;DHT22;7619;48.562;8.910;2022-08-01T10:39:27;29.30;91.60
15044;DHT22;7619;48.562;8.910;2022-08-01T10:41:57;29.30;94.40
15044;DHT22;7619;48.562;8.910;2022-08-01T10:44:28;29.60;95.30
15044;DHT22;7619;48.562;8.910;2022-08-01T10:49:31;30.30;96.60
15044;DHT22;7619;48.562;8.910;2022-08-01T10:57:09;30.60;96.30
15044;DHT22;7619;48.562;8.910;2022-08-01T11:02:29;30.10;96.30
15044;DHT22;7619;48.562;8.910;2022-08-01T11:05:02;29.60;95.10
15044;DHT22;7619;48.562;8.910;2022-08-01T11:10:24;29.00;90.50
15044;DHT22;7619;48.562;8.910;2022-08-01T11:12:53;28.80;91.60
15044;DHT22;7619;48.562;8.910;2022-08-01T11:15:25;29.30;92.40
15044;DHT22;7619;48.562;8.910;2022-08-01T11:20:36;29.10;93.90
15044;DHT22;7619;48.562;8.910;2022-08-01T11:29:13;30.20;96.10
15044;DHT22;7619;48.562;8.910;2022-08-01T11:31:42;30.50;96.80
15044;DHT22;7619;48.562;8.910;2022-08-01T11:34:11;30.60;96.00
15044;DHT22;7619;48.562;8.910;2022-08-01T11:36:40;30.20;95.50
15044;DHT22;7619;48.562;8.910;2022-08-01T11:44:25;29.30;94.70
15044;DHT22;7619;48.562;8.910;2022-08-01T11:47:01;29.30;95.20
15044;DHT22;7619;48.562;8.910;2022-08-01T11:52:27;29.10;94.50
15044;DHT22;7619;48.562;8.910;2022-08-01T11:55:05;29.00;95.00
15044;DHT22;7619;48.562;8.910;2022-08-01T12:00:13;28.90;94.90
15044;DHT22;7619;48.562;8.910;2022-08-01T12:05:14;30.40;96.00
15044;DHT22;7619;48.562;8.910;2022-08-01T12:15:23;30.20;96.10
15044;DHT22;7619;48.562;8.910;2022-08-01T12:20:35;31.40;96.70
15044;DHT22;7619;48.562;8.910;2022-08-01T12:23:06;32.40;96.10
15044;DHT22;7619;48.562;8.910;2022-08-01T12:40:49;33.70;92.80
15044;DHT22;7619;48.562;8.910;2022-08-01T12:43:20;34.20;93.40
15044;DHT22;7619;48.562;8.910;2022-08-01T12:45:52;34.40;91.50
15044;DHT22;7619;48.562;8.910;2022-08-01T12:50:50;32.50;90.50
15044;DHT22;7619;48.562;8.910;2022-08-01T12:53:21;32.20;91.80
15044;DHT22;7619;48.562;8.910;2022-08-01T12:55:51;33.00;91.50
15044;DHT22;7619;48.562;8.910;2022-08-01T13:01:04;34.20;90.20
15044;DHT22;7619;48.562;8.910;2022-08-01T13:03:33;34.20;90.10
15044;DHT22;7619;48.562;8.910;2022-08-01T13:08:47;33.40;90.00
15044;DHT22;7619;48.562;8.910;2022-08-01T13:11:16;33.70;89.50
15044;DHT22;7619;48.562;8.910;2022-08-01T13:13:47;34.10;88.70
15044;DHT22;7619;48.562;8.910;2022-08-01T13:16:19;34.00;88.90
15044;DHT22;7619;48.562;8.910;2022-08-01T13:18:50;33.40;88.40
15044;DHT22;7619;48.562;8.910;2022-08-01T13:26:45;34.20;88.00
15044;DHT22;7619;48.562;8.910;2022-08-01T13:29:16;35.00;85.60
15044;DHT22;7619;48.562;8.910;2022-08-01T13:31:46;34.30;84.40
15044;DHT22;7619;48.562;8.910;2022-08-01T13:36:53;32.80;84.40
15044;DHT22;7619;48.562;8.910;2022-08-01T13:39:22;32.40;85.70
15044;DHT22;7619;48.562;8.910;2022-08-01T13:42:13;32.00;85.90
15044;DHT22;7619;48.562;8.910;2022-08-01T13:44:42;31.90;87.80
15044;DHT22;7619;48.562;8.910;2022-08-01T13:47:12;33.00;88.00
15044;DHT22;7619;48.562;8.910;2022-08-01T13:49:41;34.40;86.50
15044;DHT22;7619;48.562;8.910;2022-08-01T13:52:10;35.00;85.90
15044;DHT22;7619;48.562;8.910;2022-08-01T13:59:36;32.00;86.00
15044;DHT22;7619;48.562;8.910;2022-08-01T14:04:42;31.00;89.20
15044;DHT22;7619;48.562;8.910;2022-08-01T14:09:48;31.10;88.50
15044;DHT22;7619;48.562;8.910;2022-08-01T14:14:45;30.70;88.60
15044;DHT22;7619;48.562;8.910;2022-08-01T14:19:51;30.30;89.80
15044;DHT22;7619;48.562;8.910;2022-08-01T14:27:24;30.70;90.10
15044;DHT22;7619;48.562;8.910;2022-08-01T14:32:29;31.00;89.70
15044;DHT22;7619;48.562;8.910;2022-08-01T14:37:28;30.50;90.90
15044;DHT22;7619;48.562;8.910;2022-08-01T14:42:25;30.30;90.60
15044;DHT22;7619;48.562;8.910;2022-08-01T14:44:54;30.40;91.00
15044;DHT22;7619;48.562;8.910;2022-08-01T14:47:23;30.90;90.50
15044;DHT22;7619;48.562;8.910;2022-08-01T14:49:52;31.10;90.40
15044;DHT22;7619;48.562;8.910;2022-08-01T14:54:49;30.50;90.60
15044;DHT22;7619;48.562;8.910;2022-08-01T14:57:18;30.00;90.20
15044;DHT22;7619;48.562;8.910;2022-08-01T14:59:47;29.80;90.50
15044;DHT22;7619;48.562;8.910;2022-08-01T15:02:16;29.80;91.20
15044;DHT22;7619;48.562;8.910;2022-08-01T15:04:46;29.80;90.20
15044;DHT22;7619;48.562;8.910;2022-08-01T15:07:16;29.70;90.40
15044;DHT22;7619;48.562;8.910;2022-08-01T15:09:46;29.80;90.40
15044;DHT22;7619;48.562;8.910;2022-08-01T15:15:02;29.60;91.10
15044;DHT22;7619;48.562;8.910;2022-08-01T15:17:32;29.60;90.30
15044;DHT22;7619;48.562;8.910;2022-08-01T15:20:02;29.60;90.10
15044;DHT22;7619;48.562;8.910;2022-08-01T15:22:32;29.50;90.50
15044;DHT22;7619;48.562;8.910;2022-08-01T15:25:02;29.50;90.20
15044;DHT22;7619;48.562;8.910;2022-08-01T15:27:31;29.30;90.50
15044;DHT22;7619;48.562;8.910;2022-08-01T15:30:00;29.20;90.80
15044;DHT22;7619;48.562;8.910;2022-08-01T15:32:29;29.00;89.50
15044;DHT22;7619;48.562;8.910;2022-08-01T15:34:58;29.00;87.20
15044;DHT22;7619;48.562;8.910;2022-08-01T15:37:27;29.00;88.20
15044;DHT22;7619;48.562;8.910;2022-08-01T15:39:56;29.20;86.60
15044;DHT22;7619;48.562;8.910;2022-08-01T15:42:25;29.40;87.80
15044;DHT22;7619;48.562;8.910;2022-08-01T15:44:54;29.30;89.00
15044;DHT22;7619;48.562;8.910;2022-08-01T15:47:23;29.30;87.00
15044;DHT22;7619;48.562;8.910;2022-08-01T15:49:52;29.20;87.70
15044;DHT22;7619;48.562;8.910;2022-08-01T15:52:23;29.00;85.20
15044;DHT22;7619;48.562;8.910;2022-08-01T15:54:52;28.80;82.60
15044;DHT22;7619;48.562;8.910;2022-08-01T15:57:21;28.70;78.80
15044;DHT22;7619;48.562;8.910;2022-08-01T15:59:50;28.60;77.80
15044;DHT22;7619;48.562;8.910;2022-08-01T16:02:18;28.50;77.80
15044;DHT22;7619;48.562;8.910;2022-08-01T16:04:47;28.30;77.30
15044;DHT22;7619;48.562;8.910;2022-08-01T16:07:16;28.00;74.90
15044;DHT22;7619;48.562;8.910;2022-08-01T16:09:45;27.90;72.20
15044;DHT22;7619;48.562;8.910;2022-08-01T16:12:14;27.70;72.70
15044;DHT22;7619;48.562;8.910;2022-08-01T16:19:39;27.50;64.80
15044;DHT22;7619;48.562;8.910;2022-08-01T16:22:08;27.40;58.80
15044;DHT22;7619;48.562;8.910;2022-08-01T16:24:37;27.30;43.70
15044;DHT22;7619;48.562;8.910;2022-08-01T16:27:06;27.20;43.00
15044;DHT22;7619;48.562;8.910;2022-08-01T16:32:04;27.10;41.00
15044;DHT22;7619;48.562;8.910;2022-08-01T16:34:33;27.20;42.00
15044;DHT22;7619;48.562;8.910;2022-08-01T16:37:02;27.10;48.70
15044;DHT22;7619;48.562;8.910;2022-08-01T16:39:31;27.10;48.00
15044;DHT22;7619;48.562;8.910;2022-08-01T16:47:04;27.00;52.10
15044;DHT22;7619;48.562;8.910;2022-08-01T16:57:06;27.00;46.00
15044;DHT22;7619;48.562;8.910;2022-08-01T17:09:36;26.50;25.40
15044;DHT22;7619;48.562;8.910;2022-08-01T17:12:06;26.50;24.90
15044;DHT22;7619;48.562;8.910;2022-08-01T17:17:12;26.50;30.60
15044;DHT22;7619;48.562;8.910;2022-08-01T17:24:46;26.40;25.90
15044;DHT22;7619;48.562;8.910;2022-08-01T17:27:17;26.40;15.40
15044;DHT22;7619;48.562;8.910;2022-08-01T17:32:26;26.30;15.00
15044;DHT22;7619;48.562;8.910;2022-08-01T17:34:55;26.20;19.10
15044;DHT22;7619;48.562;8.910;2022-08-01T17:40:05;26.00;15.70
15044;DHT22;7619;48.562;8.910;2022-08-01T17:47:40;25.90;17.40
15044;DHT22;7619;48.562;8.910;2022-08-01T17:52:47;25.80;18.10
15044;DHT22;7619;48.562;8.910;2022-08-01T17:55:16;25.80;15.20
15044;DHT22;7619;48.562;8.910;2022-08-01T18:00:22;25.70;13.10
15044;DHT22;7619;48.562;8.910;2022-08-01T18:02:51;25.50;10.70
15044;DHT22;7619;48.562;8.910;2022-08-01T18:10:27;25.40;17.10
15044;DHT22;7619;48.562;8.910;2022-08-01T18:12:56;25.50;18.30
15044;DHT22;7619;48.562;8.910;2022-08-01T18:15:25;25.40;15.20
15044;DHT22;7619;48.562;8.910;2022-08-01T18:20:24;25.20;1.00
15044;DHT22;7619;48.562;8.910;2022-08-01T18:22:53;25.10;1.00
15044;DHT22;7619;48.562;8.910;2022-08-01T18:25:22;25.00;1.00
15044;DHT22;7619;48.562;8.910;2022-08-01T18:32:49;24.60;1.00
15044;DHT22;7619;48.562;8.910;2022-08-01T18:37:56;24.00;1.00
15044;DHT22;7619;48.562;8.910;2022-08-01T18:40:25;23.70;1.00
15044;DHT22;7619;48.562;8.910;2022-08-01T18:45:31;23.40;99.90
15044;DHT22;7619;48.562;8.910;2022-08-01T18:48:01;23.10;99.90
15044;DHT22;7619;48.562;8.910;2022-08-01T18:53:08;22.70;99.90
15044;DHT22;7619;48.562;8.910;2022-08-01T18:55:37;22.50;1.00
15044;DHT22;7619;48.562;8.910;2022-08-01T19:00:44;22.40;39.50
15044;DHT22;7619;48.562;8.910;2022-08-01T19:03:13;22.20;99.90
15044;DHT22;7619;48.562;8.910;2022-08-01T19:05:43;22.00;1.00
15044;DHT22;7619;48.562;8.910;2022-08-01T19:20:54;20.90;99.90
15044;DHT22;7619;48.562;8.910;2022-08-01T19:26:04;20.70;99.90
15044;DHT22;7619;48.562;8.910;2022-08-01T19:33:42;20.40;99.90
15044;DHT22;7619;48.562;8.910;2022-08-01T19:36:14;20.50;99.90
15044;DHT22;7619;48.562;8.910;2022-08-01T19:43:50;20.40;99.90
15044;DHT22;7619;48.562;8.910;2022-08-01T19:46:20;20.50;99.90
15044;DHT22;7619;48.562;8.910;2022-08-01T19:48:49;20.50;99.90
15044;DHT22;7619;48.562;8.910;2022-08-01T19:53:49;20.50;99.90
15044;DHT22;7619;48.562;8.910;2022-08-01T19:56:19;20.60;99.90
15044;DHT22;7619;48.562;8.910;2022-08-01T19:58:50;20.60;99.90
15044;DHT22;7619;48.562;8.910;2022-08-01T20:03:50;20.40;99.90
15044;DHT22;7619;48.562;8.910;2022-08-01T20:06:21;20.50;99.90
15044;DHT22;7619;48.562;8.910;2022-08-01T20:08:51;20.50;99.90
15044;DHT22;7619;48.562;8.910;2022-08-01T20:11:21;20.50;99.90
15044;DHT22;7619;48.562;8.910;2022-08-01T20:13:51;20.50;99.90
15044;DHT22;7619;48.562;8.910;2022-08-01T20:16:21;20.50;99.90
15044;DHT22;7619;48.562;8.910;2022-08-01T20:18:51;20.50;99.90
15044;DHT22;7619;48.562;8.910;2022-08-01T20:24:00;20.40;99.90
15044;DHT22;7619;48.562;8.910;2022-08-01T20:26:30;20.40;99.90
15044;DHT22;7619;48.562;8.910;2022-08-01T20:34:10;20.40;99.90
15044;DHT22;7619;48.562;8.910;2022-08-01T20:36:39;20.30;99.90
15044;DHT22;7619;48.562;8.910;2022-08-01T20:44:18;20.30;99.90
15044;DHT22;7619;48.562;8.910;2022-08-01T20:46:48;20.30;99.90
15044;DHT22;7619;48.562;8.910;2022-08-01T20:49:17;20.20;99.90
15044;DHT22;7619;48.562;8.910;2022-08-01T21:02:06;19.80;99.90
15044;DHT22;7619;48.562;8.910;2022-08-01T21:04:47;19.80;99.90
15044;DHT22;7619;48.562;8.910;2022-08-01T21:07:22;19.80;99.90
15044;DHT22;7619;48.562;8.910;2022-08-01T21:09:57;19.70;99.90
15044;DHT22;7619;48.562;8.910;2022-08-01T21:12:30;19.70;99.90
15044;DHT22;7619;48.562;8.910;2022-08-01T21:14:57;19.60;99.90
15044;DHT22;7619;48.562;8.910;2022-08-01T21:17:34;19.60;99.90
15044;DHT22;7619;48.562;8.910;2022-08-01T21:22:36;19.60;99.90
15044;DHT22;7619;48.562;8.910;2022-08-01T21:27:39;19.40;99.90
15044;DHT22;7619;48.562;8.910;2022-08-01T21:30:09;19.40;99.90
15044;DHT22;7619;48.562;8.910;2022-08-01T21:32:40;19.40;99.90